Richardton, North Dakota
Current Conditions -  °F | °C
As of 9:55 AM on Wednesday 22 Oct 2014 (Local Time) from KD57 Reporting Station
Clear Clear  
Wind Chill: 12°   Ceiling: Unl
Heat Index: 12°   Visibility: 10mi
Dew Point:   Wind: 15mph
Humidity: 62%   Direction: 280°W
Pressure: 29.86"   Gusts: NA
Location:  46.88°N, 102.32°W
Report Text: KD57 221555Z AUTO 28013KT 10SM CLR 12/05 A2986 RMK AO2 TSNO
Loading
Personal Weather Stations






























Interactive Weather Map
Tropical Storm Tracking
New forecast layout! Learn more

10-Day Weather Forecast

Advertisements
Track Severe Weather on mobile